createdAt,value
2022-11-02T00:01:11.046Z,1020.42
2022-11-02T00:06:12.287Z,1020.43
2022-11-02T00:11:09.456Z,1020.37
2022-11-02T00:16:08.694Z,1020.36
2022-11-02T00:21:07.930Z,1020.39
2022-11-02T00:26:07.119Z,1020.34
2022-11-02T00:31:06.332Z,1020.40
2022-11-02T00:36:06.541Z,1020.45
2022-11-02T00:41:04.679Z,1020.27
2022-11-02T00:46:05.870Z,1020.24
2022-11-02T00:51:03.034Z,1020.32
2022-11-02T00:56:02.203Z,1020.34
2022-11-02T01:01:01.420Z,1020.43
2022-11-02T01:06:00.608Z,1020.48
2022-11-02T01:10:59.771Z,1020.59
2022-11-02T01:15:59.956Z,1020.64
2022-11-02T01:20:59.116Z,1020.54
2022-11-02T01:25:58.277Z,1020.62
2022-11-02T01:30:56.602Z,1020.61
2022-11-02T01:35:55.855Z,1020.73
2022-11-02T01:40:55.197Z,1020.72
2022-11-02T01:45:54.493Z,1020.74
2022-11-02T01:50:54.818Z,1020.69
2022-11-02T01:55:54.112Z,1020.72
2022-11-02T02:00:52.427Z,1020.72
2022-11-02T02:05:51.741Z,1020.69
2022-11-02T02:10:52.054Z,1020.66
2022-11-02T02:15:50.359Z,1020.71
2022-11-02T02:20:49.658Z,1020.74
2022-11-02T02:25:48.978Z,1020.74
2022-11-02T02:30:48.327Z,1020.82
2022-11-02T02:35:47.626Z,1020.80
2022-11-02T02:40:46.929Z,1020.80
2022-11-02T02:45:47.231Z,1020.87
2022-11-02T02:50:45.552Z,1020.91
2022-11-02T02:55:45.887Z,1020.83
2022-11-02T03:00:45.186Z,1020.87
2022-11-02T03:05:44.494Z,1020.91
2022-11-02T03:10:42.790Z,1020.85
2022-11-02T03:15:42.115Z,1020.86
2022-11-02T03:20:44.551Z,1020.87
2022-11-02T03:25:40.640Z,1020.88
2022-11-02T03:30:38.929Z,1020.82
2022-11-02T03:35:41.248Z,1020.85
2022-11-02T03:40:37.542Z,1020.93
2022-11-02T03:45:38.853Z,1021.00
2022-11-02T03:50:37.163Z,1020.92
2022-11-02T03:55:36.461Z,1020.95
2022-11-02T04:00:35.756Z,1020.85
2022-11-02T04:05:35.065Z,1020.91
2022-11-02T04:10:34.390Z,1020.98
2022-11-02T04:15:33.709Z,1020.98
2022-11-02T04:20:33.032Z,1020.88
2022-11-02T04:25:32.341Z,1020.90
2022-11-02T04:30:31.670Z,1020.92
2022-11-02T04:35:30.778Z,1020.98
2022-11-02T04:40:31.070Z,1020.91
2022-11-02T04:45:29.394Z,1020.95
2022-11-02T04:50:29.714Z,1020.96
2022-11-02T04:55:28.036Z,1021.04
2022-11-02T05:00:28.367Z,1021.08
2022-11-02T05:05:27.683Z,1021.09
2022-11-02T05:10:25.983Z,1021.13
2022-11-02T05:15:26.297Z,1021.13
2022-11-02T05:20:24.596Z,1021.11
2022-11-02T05:25:24.967Z,1021.11
2022-11-02T05:30:24.075Z,1021.05
2022-11-02T05:35:23.365Z,1021.11
2022-11-02T05:40:23.656Z,1021.06
2022-11-02T05:45:24.458Z,1021.16
2022-11-02T05:50:20.124Z,1021.15
2022-11-02T05:55:21.413Z,1021.21
2022-11-02T06:00:18.678Z,1021.29
2022-11-02T06:05:18.080Z,1021.28
2022-11-02T06:10:17.165Z,1021.37
2022-11-02T06:15:16.440Z,1021.44
2022-11-02T06:20:15.738Z,1021.44
2022-11-02T06:25:17.003Z,1021.47
2022-11-02T06:30:14.293Z,1021.54
2022-11-02T06:35:13.584Z,1021.53
2022-11-02T06:40:13.888Z,1021.57
2022-11-02T06:45:12.184Z,1021.67
2022-11-02T06:50:11.510Z,1021.69
2022-11-02T06:55:11.824Z,1021.73
2022-11-02T07:05:09.312Z,1021.91
2022-11-02T07:10:09.634Z,1022.01
2022-11-02T07:15:08.941Z,1022.11
2022-11-02T07:20:08.271Z,1022.09
2022-11-02T07:25:06.609Z,1022.21
2022-11-02T07:30:06.890Z,1022.28
2022-11-02T07:35:06.180Z,1022.32
2022-11-02T07:40:04.490Z,1022.36
2022-11-02T07:45:03.790Z,1022.35
2022-11-02T07:50:03.099Z,1022.32
2022-11-02T07:55:03.404Z,1022.30
2022-11-02T08:00:02.742Z,1022.28
2022-11-02T08:05:02.045Z,1022.31
2022-11-02T08:10:00.375Z,1022.44
2022-11-02T08:15:03.427Z,1022.54
2022-11-02T08:19:58.692Z,1022.56
2022-11-02T08:25:00.024Z,1022.58
2022-11-02T08:29:57.344Z,1022.68
2022-11-02T08:34:57.509Z,1022.71
2022-11-02T08:39:57.861Z,1022.77
2022-11-02T08:44:55.150Z,1022.75
2022-11-02T08:49:54.499Z,1022.87
2022-11-02T08:54:53.661Z,1022.78
2022-11-02T08:59:52.789Z,1022.82
2022-11-02T09:04:52.100Z,1022.76
2022-11-02T09:09:51.400Z,1022.70
2022-11-02T09:15:02.697Z,1022.87
2022-11-02T09:19:51.909Z,1022.97
2022-11-02T09:24:49.209Z,1023.02
2022-11-02T09:29:49.588Z,1022.99
2022-11-02T09:34:47.714Z,1022.92
2022-11-02T09:39:47.038Z,1022.90
2022-11-02T09:44:47.371Z,1022.92
2022-11-02T09:49:47.695Z,1022.92
2022-11-02T09:54:44.992Z,1022.87
2022-11-02T09:59:45.145Z,1022.97
2022-11-02T10:04:43.270Z,1022.96
2022-11-02T10:09:43.595Z,1022.99
2022-11-02T10:14:42.951Z,1022.92
2022-11-02T10:19:41.060Z,1022.93
2022-11-02T10:24:40.385Z,1022.87
2022-11-02T10:29:39.739Z,1022.81
2022-11-02T10:34:38.865Z,1022.75
2022-11-02T10:39:39.194Z,1022.74
2022-11-02T10:44:38.513Z,1022.73
2022-11-02T10:49:36.837Z,1022.68
2022-11-02T10:54:36.169Z,1022.71
2022-11-02T10:59:35.477Z,1022.63
2022-11-02T11:04:35.814Z,1022.58
2022-11-02T11:09:34.919Z,1022.58
2022-11-02T11:24:32.785Z,1022.43
2022-11-02T11:29:31.965Z,1022.41
2022-11-02T11:34:30.089Z,1022.30
2022-11-02T11:39:31.400Z,1022.33
2022-11-02T11:44:28.733Z,1022.25
2022-11-02T11:50:07.639Z,1022.29
2022-11-02T11:54:27.248Z,1022.18
2022-11-02T11:59:26.598Z,1022.10
2022-11-02T12:04:25.910Z,1022.08
2022-11-02T12:09:25.064Z,1022.13
2022-11-02T12:14:24.185Z,1022.00
2022-11-02T12:19:27.231Z,1021.91
2022-11-02T12:24:22.655Z,1021.87
2022-11-02T12:29:21.953Z,1021.70
2022-11-02T12:34:22.241Z,1021.68
2022-11-02T12:39:21.580Z,1021.61
2022-11-02T12:44:20.871Z,1021.57
2022-11-02T12:49:19.203Z,1021.46
2022-11-02T12:54:18.343Z,1021.35
2022-11-02T12:59:17.684Z,1021.17
2022-11-02T13:04:19.231Z,1021.15
2022-11-02T13:09:17.061Z,1021.17
2022-11-02T13:14:17.376Z,1021.14
2022-11-02T13:19:15.684Z,1021.07
2022-11-02T13:24:15.029Z,1021.03
2022-11-02T13:29:15.179Z,1021.02
2022-11-02T13:34:12.336Z,1020.93
2022-11-02T13:39:12.464Z,1020.83
2022-11-02T13:44:10.807Z,1020.74
2022-11-02T13:49:10.139Z,1020.72
2022-11-02T13:54:10.283Z,1020.74
2022-11-02T13:59:09.617Z,1020.75
2022-11-02T14:04:09.029Z,1020.74
2022-11-02T14:09:07.149Z,1020.67
2022-11-02T14:14:06.491Z,1020.59
2022-11-02T14:19:09.902Z,1020.69
2022-11-02T14:24:06.960Z,1020.67
2022-11-02T14:29:04.075Z,1020.64
2022-11-02T14:34:05.420Z,1020.63
2022-11-02T14:44:02.724Z,1020.63
2022-11-02T14:49:02.047Z,1020.62
2022-11-02T14:54:00.371Z,1020.54
2022-11-02T14:59:00.557Z,1020.50
2022-11-02T15:03:59.668Z,1020.50
2022-11-02T15:08:58.868Z,1020.46
2022-11-02T15:13:57.201Z,1020.41
2022-11-02T15:18:56.512Z,1020.31
2022-11-02T15:23:57.840Z,1020.31
2022-11-02T15:28:56.125Z,1020.25
2022-11-02T15:33:54.425Z,1020.32
2022-11-02T15:38:53.738Z,1020.31
2022-11-02T15:48:54.360Z,1020.30
2022-11-02T15:53:52.655Z,1020.21
2022-11-02T15:58:50.996Z,1020.19
2022-11-02T16:03:54.169Z,1020.16
2022-11-02T16:08:50.247Z,1020.16
2022-11-02T16:14:07.978Z,1020.17
2022-11-02T16:18:47.746Z,1020.15
2022-11-02T16:23:47.093Z,1020.17
2022-11-02T16:28:47.217Z,1020.08
2022-11-02T16:33:46.788Z,1020.06
2022-11-02T16:38:46.019Z,1020.12
2022-11-02T16:43:45.751Z,1020.14
2022-11-02T16:48:43.335Z,1020.08
2022-11-02T16:53:42.652Z,1020.12
2022-11-02T16:58:41.627Z,1020.14
2022-11-02T17:03:40.954Z,1020.14
2022-11-02T17:08:39.909Z,1020.08
2022-11-02T17:13:39.291Z,1020.14
2022-11-02T17:18:43.431Z,1020.06
2022-11-02T17:23:38.062Z,1020.06
2022-11-02T17:28:37.058Z,1020.10
2022-11-02T17:33:37.255Z,1020.09
2022-11-02T17:38:35.463Z,1020.08
2022-11-02T17:43:34.677Z,1020.04
2022-11-02T17:48:33.988Z,1019.99
2022-11-02T17:53:33.176Z,1019.95
2022-11-02T17:58:33.342Z,1019.85
2022-11-02T18:03:32.786Z,1019.84
2022-11-02T18:08:31.054Z,1019.89
2022-11-02T18:13:30.073Z,1019.86
2022-11-02T18:18:28.718Z,1019.74
2022-11-02T18:23:29.840Z,1019.69
2022-11-02T18:28:28.802Z,1019.62
2022-11-02T18:33:27.321Z,1019.47
2022-11-02T18:38:27.592Z,1019.40
2022-11-02T18:43:24.843Z,1019.35
2022-11-02T18:48:25.096Z,1019.18
2022-11-02T18:53:28.029Z,1019.17
2022-11-02T18:58:24.496Z,1019.10
2022-11-02T19:03:22.479Z,1019.07
2022-11-02T19:08:24.648Z,1019.08
2022-11-02T19:13:20.989Z,1019.04
2022-11-02T19:18:21.580Z,1019.04
2022-11-02T19:23:18.776Z,1019.01
2022-11-02T19:28:20.096Z,1018.99
2022-11-02T19:33:19.087Z,1019.02
2022-11-02T19:38:17.368Z,1018.93
2022-11-02T19:43:16.583Z,1018.87
2022-11-02T19:48:15.892Z,1018.84
2022-11-02T19:53:14.800Z,1018.79
2022-11-02T19:58:15.584Z,1018.78
2022-11-02T20:03:16.712Z,1018.86
2022-11-02T20:08:14.665Z,1018.92
2022-11-02T20:13:13.827Z,1018.96
2022-11-02T20:18:20.230Z,1018.98
2022-11-02T20:23:09.791Z,1018.89
2022-11-02T20:28:10.669Z,1018.87
2022-11-02T20:33:09.517Z,1018.84
2022-11-02T20:38:09.465Z,1018.92
2022-11-02T20:43:07.923Z,1018.84
2022-11-02T20:48:08.656Z,1018.82
2022-11-02T20:53:06.485Z,1018.88
2022-11-02T20:58:05.521Z,1018.94
2022-11-02T21:03:05.232Z,1018.86
2022-11-02T21:08:04.196Z,1018.88
2022-11-02T21:13:03.246Z,1018.76
2022-11-02T21:18:02.551Z,1018.75
2022-11-02T21:23:02.737Z,1018.71
2022-11-02T21:28:02.043Z,1018.66
2022-11-02T21:33:00.227Z,1018.79
2022-11-02T21:38:01.354Z,1018.71
2022-11-02T21:42:58.339Z,1018.61
2022-11-02T21:47:57.535Z,1018.65
2022-11-02T21:52:56.722Z,1018.63
2022-11-02T21:57:56.982Z,1018.60
2022-11-02T22:02:59.177Z,1018.51
2022-11-02T22:07:54.353Z,1018.43
2022-11-02T22:12:53.587Z,1018.36
2022-11-02T22:17:52.791Z,1018.28
2022-11-02T22:22:56.007Z,1018.22
2022-11-02T22:27:52.180Z,1018.11
2022-11-02T22:32:50.374Z,1017.96
2022-11-02T22:37:49.578Z,1017.98
2022-11-02T22:42:47.778Z,1017.97
2022-11-02T22:47:47.995Z,1017.98
2022-11-02T22:52:48.185Z,1017.90
2022-11-02T22:57:46.340Z,1017.81
2022-11-02T23:02:46.537Z,1017.81
2022-11-02T23:07:43.702Z,1017.76
2022-11-02T23:12:43.869Z,1017.70
2022-11-02T23:17:43.043Z,1017.77
2022-11-02T23:22:42.216Z,1017.80
2022-11-02T23:27:41.394Z,1017.79
2022-11-02T23:32:40.618Z,1017.75
2022-11-02T23:37:39.791Z,1017.63
2022-11-02T23:42:40.055Z,1017.58
2022-11-02T23:47:37.282Z,1017.49
2022-11-02T23:52:37.529Z,1017.49
2022-11-02T23:57:37.742Z,1017.49
